Cason J. Callaway — WDH7556 — position and weather

sailwx.info

Track history (hours):
 
Tides and Currents Weather Stations Pressure Air Temp Water Temp Dewpoint Dewpoint Depression Visibility Wind Speed Wind Dir Waves Ship Positions

Cason J. Callaway

Owner: Great Lakes Fleet, Inc., Homewood, IL. More information available from US FCC via Universal Licensing System and Coast Guard Vessel Documentation Center.

Last reported at 2017-Dec-11 15:00 UTC. Time now 2017-Dec-12 14:19 UTC.
Position N 43°18' W 087°12'.

Length 240 m; draft 7.7 m.

Type: Cargo ship. MMSI: 366971340.

Wind from 210 at 25 knots

Barometer 1012.5 mb
Air temperature -1.1 ° C
Visibility: greater than 2.2 NM

Date/timePositionNaut miles runAvg speedWind from/ knotsBaromVisibWave heightAir tempDewpointWater temp
2017-Dec-11 15:00N 43°18' W 087°12'15 0.6 210 / 251012.5 2.2 -1.1
2017-Dec-10 15:00N 43°06' W 087°24'14111.8 260 / 251012.110.8 -2.2
2017-Dec-10 03:00N 45°24' W 086°42'48 4.1 280 / 171014.210.8 -6.6
2017-Dec-09 15:16N 45°53' W 085°47'311.9
2017-Dec-09 15:00N 45°53' W 085°42'612.2
2017-Dec-09 14:30N 45°53' W 085°33'611.8
2017-Dec-09 14:00N 45°53' W 085°25'510.9
2017-Dec-09 13:30N 45°52' W 085°17'5 9.2
2017-Dec-09 13:00N 45°52' W 085°11'5 9.3
2017-Dec-09 12:30N 45°51' W 085°04'5 9.4
2017-Dec-09 12:00N 45°50' W 084°57'5 9.8
2017-Dec-09 11:30N 45°50' W 084°51'510.3
2017-Dec-09 11:00N 45°49' W 084°43'5 9.2
2017-Dec-09 10:30N 45°46' W 084°37'5 9.2
2017-Dec-09 10:00N 45°44' W 084°32'5 9.3
2017-Dec-09 09:30N 45°42' W 084°26'5 9.0
2017-Dec-09 08:59N 45°42' W 084°19'12 9.0
2017-Dec-09 07:40N 45°36' W 084°04'211.6
2017-Dec-09 07:30N 45°35' W 084°02'511.1
2017-Dec-09 07:00N 45°32' W 083°56'4 8.8
2017-Dec-09 06:30N 45°29' W 083°51'4 8.6
2017-Dec-09 06:00N 45°26' W 083°47'1 1.8
2017-Dec-09 05:30N 45°25' W 083°47'0 0.9
2017-Dec-09 05:00N 45°25' W 083°47'0 0.0
2017-Dec-09 04:30N 45°25' W 083°47'0 0.1
2017-Dec-09 04:00N 45°25' W 083°47'0 0.0
2017-Dec-09 03:29N 45°25' W 083°47'0 0.0
2017-Dec-09 02:53N 45°25' W 083°47'0 0.0
2017-Dec-09 02:29N 45°25' W 083°47'0 0.0
2017-Dec-09 01:59N 45°25' W 083°47'0 0.0
2017-Dec-09 01:29N 45°25' W 083°47'0 0.0
2017-Dec-09 00:59N 45°25' W 083°47'0 0.0
2017-Dec-09 00:29N 45°25' W 083°47'0 0.1
2017-Dec-08 23:59N 45°25' W 083°47'0 0.0
2017-Dec-08 23:29N 45°25' W 083°47'0 0.0
2017-Dec-08 22:58N 45°25' W 083°47'0 0.0
2017-Dec-08 22:29N 45°25' W 083°47'0 0.0
2017-Dec-08 21:59N 45°25' W 083°47'0 0.0
2017-Dec-08 21:29N 45°25' W 083°47'0 0.0
2017-Dec-08 20:59N 45°25' W 083°47'0 0.0
2017-Dec-08 20:29N 45°25' W 083°47'0 0.0
2017-Dec-08 20:00N 45°25' W 083°47'0 0.0
2017-Dec-08 19:29N 45°25' W 083°47'0 0.0
2017-Dec-08 18:59N 45°25' W 083°47'0 0.0
2017-Dec-08 18:29N 45°25' W 083°47'0 0.0
2017-Dec-08 17:59N 45°25' W 083°47'0 0.0
2017-Dec-08 17:29N 45°25' W 083°47'0 0.0
2017-Dec-08 16:59N 45°25' W 083°47'0 0.0
2017-Dec-08 16:29N 45°25' W 083°47'0 0.0
2017-Dec-08 15:59N 45°25' W 083°47'0 0.0
2017-Dec-08 15:29N 45°25' W 083°47'0 0.0
2017-Dec-08 14:59N 45°25' W 083°47'0 0.0
2017-Dec-08 14:29N 45°25' W 083°47'0 0.0
2017-Dec-08 13:59N 45°25' W 083°47'0 0.0
2017-Dec-08 13:29N 45°25' W 083°47'0 0.0
2017-Dec-08 12:59N 45°25' W 083°47'0 0.0
2017-Dec-08 12:26N 45°25' W 083°47'0 0.0
2017-Dec-08 11:59N 45°25' W 083°47'0 0.0
2017-Dec-08 11:29N 45°25' W 083°47'0 0.1
2017-Dec-08 10:59N 45°25' W 083°47'0 0.0
2017-Dec-08 10:29N 45°25' W 083°47'0 0.0
2017-Dec-08 09:59N 45°25' W 083°47'0 0.0
2017-Dec-08 09:29N 45°25' W 083°47'0 0.0
2017-Dec-08 08:59N 45°25' W 083°47'0 0.0
2017-Dec-08 08:29N 45°25' W 083°47'0 0.0
2017-Dec-08 07:59N 45°25' W 083°47'0 0.0
2017-Dec-08 07:29N 45°25' W 083°47'0 0.0
2017-Dec-08 06:59N 45°25' W 083°47'0 0.0
2017-Dec-08 06:29N 45°25' W 083°47'0 0.0
2017-Dec-08 05:59N 45°25' W 083°47'0 0.0
2017-Dec-08 05:29N 45°25' W 083°47'0 0.7
2017-Dec-08 05:01N 45°25' W 083°47'1 2.3
2017-Dec-08 04:30N 45°26' W 083°46'1 1.3
2017-Dec-08 04:00N 45°26' W 083°47'0 0.7
2017-Dec-08 03:30N 45°26' W 083°47'0 0.0
2017-Dec-08 03:00N 45°25' W 083°47'0 0.0
2017-Dec-08 02:30N 45°25' W 083°47'0 0.0
2017-Dec-08 02:00N 45°25' W 083°47'0 0.0
2017-Dec-08 01:30N 45°25' W 083°47'0 0.0
2017-Dec-08 01:00N 45°25' W 083°47'0 0.0
2017-Dec-08 00:31N 45°25' W 083°47'0 0.0
2017-Dec-08 00:00N 45°25' W 083°47'0 0.0
2017-Dec-07 23:30N 45°25' W 083°47'0 0.6
2017-Dec-07 23:00N 45°26' W 083°47'2 4.9
2017-Dec-07 22:30N 45°26' W 083°43'3 6.2
2017-Dec-07 22:00N 45°26' W 083°39'3 6.0
2017-Dec-07 21:30N 45°25' W 083°35'3 6.1
2017-Dec-07 21:00N 45°24' W 083°31'3 5.9
2017-Dec-07 20:30N 45°23' W 083°27'3 5.9
2017-Dec-07 20:00N 45°21' W 083°24'112 6.6
2017-Dec-07 03:00N 43°36' W 082°30'   280 / 251012.510.8 -1.6
2017-Dec-04 15:00N 44°30' W 082°48'6112.2 160 / 351016.210.8 7.2
2017-Dec-04 10:01N 45°24' W 083°28'011.7
2017-Dec-04 10:00N 45°24' W 083°28'611.9
2017-Dec-04 09:30N 45°26' W 083°36'510.7
2017-Dec-04 09:00N 45°27' W 083°43'3 5.3
2017-Dec-04 08:30N 45°25' W 083°46'1 1.4
2017-Dec-04 08:00N 45°25' W 083°47'0 0.0
2017-Dec-04 07:30N 45°25' W 083°47'0 0.1
2017-Dec-04 07:01N 45°25' W 083°47'0 0.0
2017-Dec-04 06:30N 45°25' W 083°47'0 0.0
2017-Dec-04 05:58N 45°25' W 083°47'0 0.0
2017-Dec-04 05:31N 45°25' W 083°47'0 0.1
2017-Dec-04 05:00N 45°25' W 083°47'0 0.0
2017-Dec-04 04:31N 45°25' W 083°47'0 0.0
2017-Dec-04 03:58N 45°25' W 083°47'0 0.0
2017-Dec-04 03:31N 45°25' W 083°47'0 0.0
2017-Dec-04 03:00N 45°25' W 083°47'0 0.0
2017-Dec-04 02:28N 45°25' W 083°47'0 0.1
2017-Dec-04 02:01N 45°25' W 083°47'0 0.0
2017-Dec-04 01:30N 45°25' W 083°47'0 0.0
2017-Dec-04 00:58N 45°25' W 083°47'0 0.0
2017-Dec-04 00:31N 45°25' W 083°47'0 0.1
2017-Dec-03 23:58N 45°25' W 083°47'0 0.0
2017-Dec-03 23:28N 45°25' W 083°47'0 0.0
2017-Dec-03 22:58N 45°25' W 083°47'0 0.0
2017-Dec-03 22:28N 45°25' W 083°47'0 0.0
2017-Dec-03 22:01N 45°25' W 083°47'0 0.0
2017-Dec-03 21:28N 45°25' W 083°47'0 0.1
2017-Dec-03 21:00N 45°25' W 083°47'1 2.2
2017-Dec-03 20:30N 45°25' W 083°46'1 2.9
2017-Dec-03 20:00N 45°26' W 083°48'0 0.6
2017-Dec-03 19:30N 45°26' W 083°48'0 0.1
2017-Dec-03 19:00N 45°26' W 083°48'0 0.0
2017-Dec-03 18:30N 45°26' W 083°48'0 0.0
2017-Dec-03 18:00N 45°26' W 083°48'0 0.0
2017-Dec-03 17:30N 45°26' W 083°48'0 0.4
2017-Dec-03 17:00N 45°26' W 083°48'1 2.5
2017-Dec-03 16:30N 45°27' W 083°46'1 1.9
2017-Dec-03 16:00N 45°28' W 083°46'2 3.1
2017-Dec-03 15:30N 45°28' W 083°48'2 3.0
2017-Dec-03 15:00N 45°29' W 083°50'1 2.9
2017-Dec-03 14:30N 45°30' W 083°51'2 3.1
2017-Dec-03 14:00N 45°32' W 083°52'2 3.9
2017-Dec-03 13:30N 45°33' W 083°54'3 5.4
2017-Dec-03 13:00N 45°36' W 083°56'25 2.9
2017-Dec-03 04:08N 45°58' W 084°14'2112.0
2017-Dec-03 02:22N 45°42' W 083°54'512.5
2017-Dec-03 02:00N 45°39' W 083°49'612.5
2017-Dec-03 01:30N 45°34' W 083°43'612.5
2017-Dec-03 01:00N 45°30' W 083°36'612.5
2017-Dec-03 00:30N 45°25' W 083°30'612.6
2017-Dec-03 00:00N 45°21' W 083°24'  
Track history (hours):
 
Tides and Currents Weather Stations Pressure Air Temp Water Temp Dewpoint Dewpoint Depression Visibility Wind Speed Wind Dir Waves Ship Positions

Cason J. Callaway

Owner: Great Lakes Fleet, Inc., Homewood, IL. More information available from US FCC via Universal Licensing System and Coast Guard Vessel Documentation Center.

Last reported at 2017-Dec-11 15:00 UTC. Time now 2017-Dec-12 14:19 UTC.
Position N 43°18' W 087°12'.

Length 240 m; draft 7.7 m.

Type: Cargo ship. MMSI: 366971340.

Wind from 210 at 25 knots

Barometer 1012.5 mb
Air temperature -1.1 ° C
Visibility: greater than 2.2 NM

Date/timePositionNaut miles runAvg speedWind from/ knotsBaromVisibWave heightAir tempDewpointWater temp
2017-Dec-11 15:00N 43°18' W 087°12'15 0.6 210 / 251012.5 2.2 -1.1
2017-Dec-10 15:00N 43°06' W 087°24'14111.8 260 / 251012.110.8 -2.2
2017-Dec-10 03:00N 45°24' W 086°42'48 4.1 280 / 171014.210.8 -6.6
2017-Dec-09 15:16N 45°53' W 085°47'311.9
2017-Dec-09 15:00N 45°53' W 085°42'612.2
2017-Dec-09 14:30N 45°53' W 085°33'611.8
2017-Dec-09 14:00N 45°53' W 085°25'510.9
2017-Dec-09 13:30N 45°52' W 085°17'5 9.2
2017-Dec-09 13:00N 45°52' W 085°11'5 9.3
2017-Dec-09 12:30N 45°51' W 085°04'5 9.4
2017-Dec-09 12:00N 45°50' W 084°57'5 9.8
2017-Dec-09 11:30N 45°50' W 084°51'510.3
2017-Dec-09 11:00N 45°49' W 084°43'5 9.2
2017-Dec-09 10:30N 45°46' W 084°37'5 9.2
2017-Dec-09 10:00N 45°44' W 084°32'5 9.3
2017-Dec-09 09:30N 45°42' W 084°26'5 9.0
2017-Dec-09 08:59N 45°42' W 084°19'12 9.0
2017-Dec-09 07:40N 45°36' W 084°04'211.6
2017-Dec-09 07:30N 45°35' W 084°02'511.1
2017-Dec-09 07:00N 45°32' W 083°56'4 8.8
2017-Dec-09 06:30N 45°29' W 083°51'4 8.6
2017-Dec-09 06:00N 45°26' W 083°47'1 1.8
2017-Dec-09 05:30N 45°25' W 083°47'0 0.9
2017-Dec-09 05:00N 45°25' W 083°47'0 0.0
2017-Dec-09 04:30N 45°25' W 083°47'0 0.1
2017-Dec-09 04:00N 45°25' W 083°47'0 0.0
2017-Dec-09 03:29N 45°25' W 083°47'0 0.0
2017-Dec-09 02:53N 45°25' W 083°47'0 0.0
2017-Dec-09 02:29N 45°25' W 083°47'0 0.0
2017-Dec-09 01:59N 45°25' W 083°47'0 0.0
2017-Dec-09 01:29N 45°25' W 083°47'0 0.0
2017-Dec-09 00:59N 45°25' W 083°47'0 0.0
2017-Dec-09 00:29N 45°25' W 083°47'0 0.1
2017-Dec-08 23:59N 45°25' W 083°47'0 0.0
2017-Dec-08 23:29N 45°25' W 083°47'0 0.0
2017-Dec-08 22:58N 45°25' W 083°47'0 0.0
2017-Dec-08 22:29N 45°25' W 083°47'0 0.0
2017-Dec-08 21:59N 45°25' W 083°47'0 0.0
2017-Dec-08 21:29N 45°25' W 083°47'0 0.0
2017-Dec-08 20:59N 45°25' W 083°47'0 0.0
2017-Dec-08 20:29N 45°25' W 083°47'0 0.0
2017-Dec-08 20:00N 45°25' W 083°47'0 0.0
2017-Dec-08 19:29N 45°25' W 083°47'0 0.0
2017-Dec-08 18:59N 45°25' W 083°47'0 0.0
2017-Dec-08 18:29N 45°25' W 083°47'0 0.0
2017-Dec-08 17:59N 45°25' W 083°47'0 0.0
2017-Dec-08 17:29N 45°25' W 083°47'0 0.0
2017-Dec-08 16:59N 45°25' W 083°47'0 0.0
2017-Dec-08 16:29N 45°25' W 083°47'0 0.0
2017-Dec-08 15:59N 45°25' W 083°47'0 0.0
2017-Dec-08 15:29N 45°25' W 083°47'0 0.0
2017-Dec-08 14:59N 45°25' W 083°47'0 0.0
2017-Dec-08 14:29N 45°25' W 083°47'0 0.0
2017-Dec-08 13:59N 45°25' W 083°47'0 0.0
2017-Dec-08 13:29N 45°25' W 083°47'0 0.0
2017-Dec-08 12:59N 45°25' W 083°47'0 0.0
2017-Dec-08 12:26N 45°25' W 083°47'0 0.0
2017-Dec-08 11:59N 45°25' W 083°47'0 0.0
2017-Dec-08 11:29N 45°25' W 083°47'0 0.1
2017-Dec-08 10:59N 45°25' W 083°47'0 0.0
2017-Dec-08 10:29N 45°25' W 083°47'0 0.0
2017-Dec-08 09:59N 45°25' W 083°47'0 0.0
2017-Dec-08 09:29N 45°25' W 083°47'0 0.0
2017-Dec-08 08:59N 45°25' W 083°47'0 0.0
2017-Dec-08 08:29N 45°25' W 083°47'0 0.0
2017-Dec-08 07:59N 45°25' W 083°47'0 0.0
2017-Dec-08 07:29N 45°25' W 083°47'0 0.0
2017-Dec-08 06:59N 45°25' W 083°47'0 0.0
2017-Dec-08 06:29N 45°25' W 083°47'0 0.0
2017-Dec-08 05:59N 45°25' W 083°47'0 0.0
2017-Dec-08 05:29N 45°25' W 083°47'0 0.7
2017-Dec-08 05:01N 45°25' W 083°47'1 2.3
2017-Dec-08 04:30N 45°26' W 083°46'1 1.3
2017-Dec-08 04:00N 45°26' W 083°47'0 0.7
2017-Dec-08 03:30N 45°26' W 083°47'0 0.0
2017-Dec-08 03:00N 45°25' W 083°47'0 0.0
2017-Dec-08 02:30N 45°25' W 083°47'0 0.0
2017-Dec-08 02:00N 45°25' W 083°47'0 0.0
2017-Dec-08 01:30N 45°25' W 083°47'0 0.0
2017-Dec-08 01:00N 45°25' W 083°47'0 0.0
2017-Dec-08 00:31N 45°25' W 083°47'0 0.0
2017-Dec-08 00:00N 45°25' W 083°47'0 0.0
2017-Dec-07 23:30N 45°25' W 083°47'0 0.6
2017-Dec-07 23:00N 45°26' W 083°47'2 4.9
2017-Dec-07 22:30N 45°26' W 083°43'3 6.2
2017-Dec-07 22:00N 45°26' W 083°39'3 6.0
2017-Dec-07 21:30N 45°25' W 083°35'3 6.1
2017-Dec-07 21:00N 45°24' W 083°31'3 5.9
2017-Dec-07 20:30N 45°23' W 083°27'3 5.9
2017-Dec-07 20:00N 45°21' W 083°24'112 6.6
2017-Dec-07 03:00N 43°36' W 082°30'   280 / 251012.510.8 -1.6
2017-Dec-04 15:00N 44°30' W 082°48'6112.2 160 / 351016.210.8 7.2
2017-Dec-04 10:01N 45°24' W 083°28'011.7
2017-Dec-04 10:00N 45°24' W 083°28'611.9
2017-Dec-04 09:30N 45°26' W 083°36'510.7
2017-Dec-04 09:00N 45°27' W 083°43'3 5.3
2017-Dec-04 08:30N 45°25' W 083°46'1 1.4
2017-Dec-04 08:00N 45°25' W 083°47'0 0.0
2017-Dec-04 07:30N 45°25' W 083°47'0 0.1
2017-Dec-04 07:01N 45°25' W 083°47'0 0.0
2017-Dec-04 06:30N 45°25' W 083°47'0 0.0
2017-Dec-04 05:58N 45°25' W 083°47'0 0.0
2017-Dec-04 05:31N 45°25' W 083°47'0 0.1
2017-Dec-04 05:00N 45°25' W 083°47'0 0.0
2017-Dec-04 04:31N 45°25' W 083°47'0 0.0
2017-Dec-04 03:58N 45°25' W 083°47'0 0.0
2017-Dec-04 03:31N 45°25' W 083°47'0 0.0
2017-Dec-04 03:00N 45°25' W 083°47'0 0.0
2017-Dec-04 02:28N 45°25' W 083°47'0 0.1
2017-Dec-04 02:01N 45°25' W 083°47'0 0.0
2017-Dec-04 01:30N 45°25' W 083°47'0 0.0
2017-Dec-04 00:58N 45°25' W 083°47'0 0.0
2017-Dec-04 00:31N 45°25' W 083°47'0 0.1
2017-Dec-03 23:58N 45°25' W 083°47'0 0.0
2017-Dec-03 23:28N 45°25' W 083°47'0 0.0
2017-Dec-03 22:58N 45°25' W 083°47'0 0.0
2017-Dec-03 22:28N 45°25' W 083°47'0 0.0
2017-Dec-03 22:01N 45°25' W 083°47'0 0.0
2017-Dec-03 21:28N 45°25' W 083°47'0 0.1
2017-Dec-03 21:00N 45°25' W 083°47'1 2.2
2017-Dec-03 20:30N 45°25' W 083°46'1 2.9
2017-Dec-03 20:00N 45°26' W 083°48'0 0.6
2017-Dec-03 19:30N 45°26' W 083°48'0 0.1
2017-Dec-03 19:00N 45°26' W 083°48'0 0.0
2017-Dec-03 18:30N 45°26' W 083°48'0 0.0
2017-Dec-03 18:00N 45°26' W 083°48'0 0.0
2017-Dec-03 17:30N 45°26' W 083°48'0 0.4
2017-Dec-03 17:00N 45°26' W 083°48'1 2.5
2017-Dec-03 16:30N 45°27' W 083°46'1 1.9
2017-Dec-03 16:00N 45°28' W 083°46'2 3.1
2017-Dec-03 15:30N 45°28' W 083°48'2 3.0
2017-Dec-03 15:00N 45°29' W 083°50'1 2.9
2017-Dec-03 14:30N 45°30' W 083°51'2 3.1
2017-Dec-03 14:00N 45°32' W 083°52'2 3.9
2017-Dec-03 13:30N 45°33' W 083°54'3 5.4
2017-Dec-03 13:00N 45°36' W 083°56'25 2.9
2017-Dec-03 04:08N 45°58' W 084°14'2112.0
2017-Dec-03 02:22N 45°42' W 083°54'512.5
2017-Dec-03 02:00N 45°39' W 083°49'612.5
2017-Dec-03 01:30N 45°34' W 083°43'612.5
2017-Dec-03 01:00N 45°30' W 083°36'612.5
2017-Dec-03 00:30N 45°25' W 083°30'612.6
2017-Dec-03 00:00N 45°21' W 083°24'  

Dump ship's entire track history